Asheville Regional Airport
KAVL : now visible

Airfield :











YOU CAN JOIN US ON...

 
LOGIN :

Register | Disclaimer

   EN    FR    IT 

 









Legend :    VFR   Marginal VFR   IFR   Intensive IFR   Very Intensive IFR
Visi :
Ceiling :
>= 8 km
>= 3000ft
5 to 8 km
1000 to 3000 ft
1500m to 5 km
500 to 1000 ft
800 to 1500m
200 to 500 ft
< 800m
< 200 ft
Symbols :   Thunderstorms  Fog  Heavy snow  Heavy precipitations  Wind > 20 kt






- Airport Elevation : 2165 ft
- IATA code : AVL


KAVL - Asheville Regional

CURRENT METAR :
  • 231454Z 00000KT 10SM CLR 03/M03 A3027 RMK AO2 SLP255 T00331033 50001 $

EXPIRED METARs :
  • 231354Z 00000KT 10SM CLR 00/M03 A3028 RMK AO2 SLP259 T00001033 $
  • 231254Z 00000KT 10SM CLR M02/M04 A3027 RMK AO2 SLP258 T10171044 $

TAF KAVL
Valid from the 23 at 12:00 until the 24 at 12:00 UTC


231134Z 2312/2412 VRB02KT P6SM FEW240
FM231800 18005KT P6SM SCT120
FM232300 19004KT P6SM BKN100
FM240300 VRB02KT P6SM BKN080
PROB30 2408/2412 4SM RA BR OVC025



MET'MAP, your aeronautical weather chart ! - Copyright ORBIFLY December 2007 - Disclaimer

ORBIFLY MET'MAP TEAM :

Programming & Development : Alexandra Zaïnal
Concept & original design : Baudouin d'Aumeries
Assistance for programming : Marc-Olivier Méhu
Technical & hardware support : Manuel Goepfert

Contact : metmap@orbifly.com




SOURCES & CREDITS :

   NOAA       Earth
Advisory